EST,Max TemperatureF,Mean TemperatureF,Min TemperatureF,Max Dew PointF,MeanDew PointF,Min DewpointF,Max Humidity, Mean Humidity, Min Humidity, Max Sea Level PressureIn, Mean Sea Level PressureIn, Min Sea Level PressureIn, Max VisibilityMiles, Mean VisibilityMiles, Min VisibilityMiles, Max Wind SpeedMPH, Mean Wind SpeedMPH, Max Gust SpeedMPH,PrecipitationIn, CloudCover, Events, WindDirDegrees
2010-11-1,,,,,,,,,,,,,,,,,,,,,,
2010-11-2,,,,,,,,,,,,,,,,,,,,,,
2010-11-3,,,,,,,,,,,,,,,,,,,,,,
2010-11-4,51,49,48,50,49,48,100,99,94,29.64,29.60,29.56,10,7,2,5,1,,0.25,8,,330
2010-11-5,,,,,,,,,,,,,,,,,,,,,,
2010-11-6,,,,,,,,,,,,,,,,,,,,,,
2010-11-7,,,,,,,,,,,,,,,,,,,,,,
2010-11-8,68,56,44,37,34,30,71,49,24,29.90,29.88,29.86,10,10,10,5,2,,0.00,0,,261
2010-11-9,71,52,33,43,34,27,100,62,19,30.01,29.96,29.89,10,10,10,10,2,18,0.00,0,,331
2010-11-10,68,50,33,45,40,34,100,80,35,30.22,30.11,30.01,10,10,7,9,1,,0.00,0,,4
2010-11-11,62,48,33,39,35,30,100,71,30,30.41,30.34,30.23,10,10,4,10,2,,0.00,0,,12
2010-11-12,62,45,28,34,26,18,100,64,18,30.42,30.37,30.32,10,10,7,10,2,,0.00,0,,4
2010-11-13,66,46,26,36,26,12,100,63,12,30.30,30.20,30.12,10,10,10,4,0,,0.00,0,,14
2010-11-14,66,47,28,36,28,16,100,65,14,30.13,30.06,30.00,10,10,10,7,1,,0.00,0,,179
2010-11-15,60,48,35,46,40,34,93,77,45,30.01,29.99,29.97,10,10,10,4,0,,0.00,4,,60
2010-11-16,64,52,48,63,54,45,94,92,87,29.94,29.85,29.67,10,10,10,10,3,21,0.02,6,,146
2010-11-17,60,48,33,54,40,28,100,77,29,30.15,29.97,29.67,10,10,10,13,6,16,0.00,0,,241
2010-11-18,57,42,28,37,34,28,100,83,38,30.24,30.20,30.15,10,9,7,8,1,,0.00,0,,300
2010-11-19,57,44,32,39,34,30,100,75,36,30.37,30.29,30.25,10,8,3,7,1,,0.00,0,,295
2010-11-20,66,52,37,43,40,37,100,84,37,30.32,30.30,30.25,10,9,5,8,2,9,0.00,0,,229
2010-11-21,64,48,32,45,39,32,100,79,45,30.43,30.36,30.32,10,7,2,0,0,,0.00,0,,-1
2010-11-22,69,52,35,55,44,36,100,85,40,30.40,30.31,30.20,10,8,2,15,1,,0.00,3,,200
2010-11-23,64,58,51,57,51,46,82,71,63,30.18,30.09,30.05,10,10,10,13,5,22,0.00,7,,231
2010-11-24,62,48,35,43,30,18,93,52,18,30.26,30.20,30.14,10,10,10,9,4,,0.00,0,,50
2010-11-25,53,45,37,54,41,27,100,80,49,30.21,30.08,29.89,10,7,1,7,3,,0.01,6,,163
2010-11-26,62,55,46,57,47,28,94,75,50,29.84,29.79,29.75,10,10,10,17,7,24,0.00,1,,254
2010-11-27,53,42,30,25,20,16,75,48,26,30.21,30.00,29.86,10,10,10,9,3,16,0.00,0,,284
2010-11-28,51,36,21,28,22,19,100,67,30,30.43,30.35,30.22,10,10,10,7,1,,0.00,0,,68
2010-11-29,51,36,21,36,27,19,100,77,46,30.49,30.43,30.36,10,10,10,8,1,,0.00,3,,82
2010-11-30,62,52,42,59,45,37,88,82,76,30.35,30.20,29.92,10,10,7,10,3,17,0.00,8,,108